Time;durP1;ratioP1;P1;durP2;ratioP2;P2;SDS_P1;SDS_P2;PMS_P1;PMS_P2;Temp;Humidity;BMP_temperature;BMP_pressure;BME280_temperature;BME280_humidity;BME280_pressure;Samples;Min_cycle;Max_cycle;Signal;HPM_P1;HPM_P2
2022/10/06 00:01:14;;;;;;;1.27;0.90;;;;;;;;;;5071507;28;20204;-47
2022/10/06 00:03:41;;;;;;;1.27;1.13;;;;;;;;;;5071148;28;20247;-47
2022/10/06 00:06:07;;;;;;;1.07;0.87;;;;;;;;;;5071615;28;20199;-46
2022/10/06 00:08:34;;;;;;;1.60;1.00;;;;;;;;;;5071268;28;20227;-50
2022/10/06 00:11:00;;;;;;;1.20;0.80;;;;;;;;;;5071143;28;20203;-47
2022/10/06 00:13:27;;;;;;;1.10;0.70;;;;;;;;;;5071655;28;20218;-47
2022/10/06 00:15:54;;;;;;;2.87;0.77;;;;;;;;;;5071221;28;20191;-46
2022/10/06 00:18:20;;;;;;;1.70;0.77;;;;;;;;;;5072606;28;20199;-46
2022/10/06 00:20:53;;;;;;;0.80;0.70;;;;;;;;;;5074858;28;20199;-46
2022/10/06 00:23:19;;;;;;;1.00;0.90;;;;;;;;;;5075041;28;20196;-46
2022/10/06 00:25:46;;;;;;;0.70;0.70;;;;;;;;;;5074808;28;20215;-46
2022/10/06 00:28:12;;;;;;;2.07;0.50;;;;;;;;;;5074910;28;20292;-47
2022/10/06 00:30:39;;;;;;;1.13;0.70;;;;;;;;;;5074824;28;20204;-47
2022/10/06 00:33:06;;;;;;;1.10;0.80;;;;;;;;;;5074863;28;20210;-47
2022/10/06 00:35:33;;;;;;;1.60;0.70;;;;;;;;;;5074743;28;20283;-54
2022/10/06 00:37:59;;;;;;;0.70;0.70;;;;;;;;;;5074652;28;20542;-47
2022/10/06 00:40:25;;;;;;;0.77;0.70;;;;;;;;;;5074561;28;20199;-47
2022/10/06 00:42:53;;;;;;;1.13;0.67;;;;;;;;;;5074586;28;20206;-47
2022/10/06 00:45:22;;;;;;;2.53;1.00;;;;;;;;;;5074601;28;20195;-47
2022/10/06 00:47:48;;;;;;;0.93;0.60;;;;;;;;;;5074384;28;20227;-47
2022/10/06 00:50:16;;;;;;;2.80;0.93;;;;;;;;;;5074509;28;20199;-47
2022/10/06 00:52:42;;;;;;;0.83;0.83;;;;;;;;;;5074455;28;20411;-47
2022/10/06 00:55:08;;;;;;;2.43;0.87;;;;;;;;;;5074421;28;20252;-47
2022/10/06 00:57:35;;;;;;;1.57;0.60;;;;;;;;;;5074418;28;20202;-47
2022/10/06 01:00:01;;;;;;;0.70;0.70;;;;;;;;;;5074229;28;20200;-47
2022/10/06 01:02:28;;;;;;;0.80;0.70;;;;;;;;;;5074150;28;20246;-47
2022/10/06 01:04:56;;;;;;;2.70;1.03;;;;;;;;;;5074051;28;20207;-47
2022/10/06 01:07:25;;;;;;;1.93;1.03;;;;;;;;;;5074086;28;20223;-47
2022/10/06 01:09:52;;;;;;;2.13;1.23;;;;;;;;;;5073931;28;20685;-47
2022/10/06 01:12:19;;;;;;;2.40;1.30;;;;;;;;;;5074178;28;20215;-47
2022/10/06 01:14:45;;;;;;;1.60;1.40;;;;;;;;;;5074006;28;20204;-46
2022/10/06 01:17:13;;;;;;;2.00;1.10;;;;;;;;;;5073906;28;20195;-47
2022/10/06 01:19:46;;;;;;;1.33;1.03;;;;;;;;;;5073899;28;20196;-46
2022/10/06 01:22:14;;;;;;;1.67;1.33;;;;;;;;;;5073875;28;20204;-47
2022/10/06 01:24:41;;;;;;;1.30;1.10;;;;;;;;;;5073679;28;20199;-47
2022/10/06 01:27:08;;;;;;;2.17;1.07;;;;;;;;;;5073766;28;20209;-47
2022/10/06 01:29:35;;;;;;;2.43;1.60;;;;;;;;;;5073182;28;20227;-46
2022/10/06 01:32:01;;;;;;;1.10;1.00;;;;;;;;;;5073544;28;20200;-47
2022/10/06 01:34:27;;;;;;;1.93;0.90;;;;;;;;;;5073677;28;20198;-46
2022/10/06 01:36:53;;;;;;;1.97;1.20;;;;;;;;;;5073470;28;20199;-46
2022/10/06 01:39:19;;;;;;;2.43;1.07;;;;;;;;;;5073544;28;20298;-50
2022/10/06 01:41:46;;;;;;;2.13;1.20;;;;;;;;;;5073428;28;20207;-46
2022/10/06 01:44:12;;;;;;;2.20;0.97;;;;;;;;;;5073491;28;20206;-46
2022/10/06 01:46:38;;;;;;;1.73;1.20;;;;;;;;;;5073382;28;20217;-46
2022/10/06 01:49:04;;;;;;;1.27;1.00;;;;;;;;;;5073189;28;20586;-46
2022/10/06 01:51:30;;;;;;;1.53;1.00;;;;;;;;;;5073301;28;20250;-46
2022/10/06 01:53:56;;;;;;;2.93;1.20;;;;;;;;;;5073034;28;20723;-46
2022/10/06 01:56:23;;;;;;;3.57;1.43;;;;;;;;;;5073249;28;20615;-46
2022/10/06 01:58:50;;;;;;;0.97;0.90;;;;;;;;;;5073084;28;20195;-46
2022/10/06 02:01:16;;;;;;;1.70;1.00;;;;;;;;;;5073241;28;20204;-46
2022/10/06 02:03:42;;;;;;;2.17;1.00;;;;;;;;;;5072884;28;20325;-46
2022/10/06 02:06:09;;;;;;;2.83;1.20;;;;;;;;;;5072902;28;20200;-46
2022/10/06 02:08:35;;;;;;;2.27;1.20;;;;;;;;;;5072635;28;20635;-46
2022/10/06 02:11:04;;;;;;;1.10;1.00;;;;;;;;;;5072755;28;20230;-47
2022/10/06 02:13:30;;;;;;;2.97;1.20;;;;;;;;;;5071571;28;20728;-46
2022/10/06 02:15:58;;;;;;;4.03;1.33;;;;;;;;;;5072701;28;20225;-46
2022/10/06 02:18:24;;;;;;;2.33;1.13;;;;;;;;;;5072828;28;20234;-46
2022/10/06 02:20:51;;;;;;;1.03;0.93;;;;;;;;;;5072849;28;20615;-46
2022/10/06 02:23:17;;;;;;;1.40;1.30;;;;;;;;;;5072697;28;20219;-46
2022/10/06 02:25:43;;;;;;;2.77;1.20;;;;;;;;;;5072510;28;20230;-45
2022/10/06 02:28:09;;;;;;;1.10;1.00;;;;;;;;;;5072441;28;20589;-46
2022/10/06 02:30:35;;;;;;;2.70;1.37;;;;;;;;;;5072602;28;20195;-46
2022/10/06 02:33:02;;;;;;;2.00;1.13;;;;;;;;;;5072416;28;20673;-47
2022/10/06 02:35:28;;;;;;;1.83;1.50;;;;;;;;;;5072393;28;20669;-46
2022/10/06 02:37:54;;;;;;;1.87;1.20;;;;;;;;;;5072269;28;20670;-46
2022/10/06 02:40:20;;;;;;;5.17;1.40;;;;;;;;;;5072293;28;20256;-46
2022/10/06 02:42:47;;;;;;;3.60;1.23;;;;;;;;;;5071288;28;20626;-46
2022/10/06 02:45:13;;;;;;;3.13;1.20;;;;;;;;;;5072191;28;20203;-45
2022/10/06 02:47:39;;;;;;;2.37;1.20;;;;;;;;;;5072166;28;20303;-46
2022/10/06 02:50:07;;;;;;;4.37;1.40;;;;;;;;;;5072071;28;20287;-46
2022/10/06 02:52:34;;;;;;;2.97;1.40;;;;;;;;;;5072127;28;20662;-45
2022/10/06 02:55:01;;;;;;;3.97;1.50;;;;;;;;;;5071986;28;20209;-46
2022/10/06 02:57:28;;;;;;;2.43;1.47;;;;;;;;;;5072391;28;20195;-46
2022/10/06 02:59:54;;;;;;;4.03;1.60;;;;;;;;;;5071943;28;20191;-46
2022/10/06 03:02:20;;;;;;;1.87;1.17;;;;;;;;;;5071977;28;20233;-46
2022/10/06 03:04:46;;;;;;;2.60;1.70;;;;;;;;;;5071965;28;20684;-46
2022/10/06 03:07:13;;;;;;;4.17;1.50;;;;;;;;;;5071876;28;20203;-46
2022/10/06 03:09:39;;;;;;;3.77;1.50;;;;;;;;;;5071931;28;20222;-46
2022/10/06 03:12:05;;;;;;;2.53;1.70;;;;;;;;;;5071818;28;20227;-46
2022/10/06 03:14:32;;;;;;;4.07;2.10;;;;;;;;;;5071951;28;20206;-46
2022/10/06 03:16:58;;;;;;;3.47;1.70;;;;;;;;;;5071743;28;20847;-47
2022/10/06 03:19:24;;;;;;;5.03;1.40;;;;;;;;;;5072024;28;20222;-46
2022/10/06 03:21:50;;;;;;;3.27;1.70;;;;;;;;;;5071725;28;20195;-46
2022/10/06 03:24:17;;;;;;;5.63;2.10;;;;;;;;;;5071720;28;20199;-46
2022/10/06 03:26:44;;;;;;;4.23;1.53;;;;;;;;;;5071762;28;20204;-46
2022/10/06 03:29:10;;;;;;;6.63;1.70;;;;;;;;;;5071557;28;20223;-46
2022/10/06 03:31:36;;;;;;;7.43;1.87;;;;;;;;;;5071751;28;20231;-46
2022/10/06 03:34:03;;;;;;;6.40;1.93;;;;;;;;;;5071593;28;20565;-46
2022/10/06 03:36:33;;;;;;;7.50;1.77;;;;;;;;;;5071664;28;20543;-46
2022/10/06 03:39:00;;;;;;;3.90;1.70;;;;;;;;;;5071547;28;20278;-46
2022/10/06 03:41:28;;;;;;;3.27;1.50;;;;;;;;;;5071676;28;20217;-46
2022/10/06 03:43:55;;;;;;;3.63;1.43;;;;;;;;;;5071621;28;20444;-46
2022/10/06 03:46:22;;;;;;;3.20;1.43;;;;;;;;;;5071747;28;20207;-46
2022/10/06 03:48:49;;;;;;;5.60;2.43;;;;;;;;;;5071379;28;20273;-46
2022/10/06 03:51:16;;;;;;;4.60;1.93;;;;;;;;;;5071627;28;20199;-46
2022/10/06 03:53:43;;;;;;;4.00;1.73;;;;;;;;;;5073451;28;20249;-47
2022/10/06 03:56:11;;;;;;;5.53;1.57;;;;;;;;;;5075494;28;20202;-46
2022/10/06 03:58:40;;;;;;;3.43;1.70;;;;;;;;;;5075461;28;20196;-46
2022/10/06 04:01:07;;;;;;;5.63;2.00;;;;;;;;;;5075294;28;20621;-46
2022/10/06 04:03:33;;;;;;;3.60;1.60;;;;;;;;;;5075165;28;20293;-46
2022/10/06 04:06:00;;;;;;;3.90;1.60;;;;;;;;;;5075223;28;20207;-46
2022/10/06 04:08:26;;;;;;;4.47;1.60;;;;;;;;;;5074927;28;20270;-47
2022/10/06 04:10:52;;;;;;;5.40;1.63;;;;;;;;;;5075108;28;20663;-47
2022/10/06 04:13:19;;;;;;;5.57;1.67;;;;;;;;;;5075079;28;20786;-47
2022/10/06 04:15:46;;;;;;;9.23;2.23;;;;;;;;;;5075037;28;20219;-47
2022/10/06 04:18:12;;;;;;;6.13;2.17;;;;;;;;;;5075053;28;20291;-47
2022/10/06 04:20:38;;;;;;;5.70;2.03;;;;;;;;;;5074903;28;20188;-46
2022/10/06 04:23:05;;;;;;;5.70;1.80;;;;;;;;;;5074978;28;20196;-47
2022/10/06 04:25:31;;;;;;;5.17;2.00;;;;;;;;;;5074928;28;20202;-47
2022/10/06 04:27:57;;;;;;;5.17;2.00;;;;;;;;;;5074668;28;20235;-47
2022/10/06 04:30:23;;;;;;;9.70;1.83;;;;;;;;;;5074727;28;20571;-46
2022/10/06 04:32:50;;;;;;;8.10;2.23;;;;;;;;;;5074726;28;20273;-46
2022/10/06 04:35:16;;;;;;;9.80;2.53;;;;;;;;;;5074721;28;20673;-46
2022/10/06 04:37:42;;;;;;;7.13;2.10;;;;;;;;;;5074601;28;20684;-46
2022/10/06 04:40:09;;;;;;;6.03;2.10;;;;;;;;;;5074535;28;20253;-46
2022/10/06 04:42:36;;;;;;;5.57;2.10;;;;;;;;;;5074610;28;20195;-46
2022/10/06 04:45:02;;;;;;;5.87;2.30;;;;;;;;;;5074407;28;20264;-46
2022/10/06 04:47:28;;;;;;;6.37;2.43;;;;;;;;;;5074449;28;20231;-46
2022/10/06 04:49:55;;;;;;;8.57;2.43;;;;;;;;;;5074596;28;20545;-46
2022/10/06 04:52:21;;;;;;;4.67;1.97;;;;;;;;;;5074389;28;20212;-46
2022/10/06 04:54:47;;;;;;;8.93;2.13;;;;;;;;;;5074173;28;20687;-46
2022/10/06 04:57:13;;;;;;;12.97;2.40;;;;;;;;;;5074329;28;20207;-46
2022/10/06 05:02:44;;;;;;;10.63;3.97;;;;;;;;;;5031616;28;20366;-46
2022/10/06 05:05:11;;;;;;;6.40;2.40;;;;;;;;;;5030982;28;20196;-47
2022/10/06 05:07:37;;;;;;;7.03;2.63;;;;;;;;;;5051667;28;20306;-47
2022/10/06 05:10:03;;;;;;;11.23;3.90;;;;;;;;;;5073920;28;20336;-47
2022/10/06 05:12:30;;;;;;;12.13;3.80;;;;;;;;;;5074057;28;20198;-47
2022/10/06 05:14:56;;;;;;;10.97;4.60;;;;;;;;;;5073778;28;20661;-47
2022/10/06 05:17:22;;;;;;;9.30;2.83;;;;;;;;;;5073580;28;20634;-46
2022/10/06 05:19:48;;;;;;;7.30;2.83;;;;;;;;;;5073761;28;20271;-46
2022/10/06 05:22:15;;;;;;;6.13;2.10;;;;;;;;;;5073546;28;20294;-47
2022/10/06 05:24:41;;;;;;;8.33;2.87;;;;;;;;;;5073641;28;20200;-47
2022/10/06 05:27:07;;;;;;;9.70;2.47;;;;;;;;;;5073637;28;20270;-47
2022/10/06 05:29:34;;;;;;;9.23;2.30;;;;;;;;;;5073490;28;20713;-47
2022/10/06 05:32:00;;;;;;;12.90;2.87;;;;;;;;;;5073491;28;20196;-47
2022/10/06 05:34:26;;;;;;;9.33;2.63;;;;;;;;;;5073608;28;20680;-47
2022/10/06 05:36:52;;;;;;;6.97;2.00;;;;;;;;;;5073355;28;20216;-47
2022/10/06 05:39:19;;;;;;;7.87;2.83;;;;;;;;;;5073361;28;20551;-47
2022/10/06 05:41:45;;;;;;;6.67;2.03;;;;;;;;;;5073389;28;20196;-47
2022/10/06 05:44:12;;;;;;;8.73;2.77;;;;;;;;;;5073275;28;20257;-47
2022/10/06 05:46:38;;;;;;;8.10;2.23;;;;;;;;;;5073362;28;20219;-47
2022/10/06 05:49:09;;;;;;;8.67;2.40;;;;;;;;;;5073141;28;20239;-47
2022/10/06 05:51:35;;;;;;;7.63;2.00;;;;;;;;;;5073267;28;20280;-46
2022/10/06 05:54:02;;;;;;;8.53;2.70;;;;;;;;;;5073026;28;20211;-47
2022/10/06 05:56:29;;;;;;;8.43;2.30;;;;;;;;;;5073217;28;20199;-47
2022/10/06 05:58:56;;;;;;;9.53;2.50;;;;;;;;;;5072877;28;20677;-46
2022/10/06 06:01:23;;;;;;;5.80;2.40;;;;;;;;;;5073021;28;20218;-47
2022/10/06 06:03:50;;;;;;;9.17;2.67;;;;;;;;;;5072817;28;20322;-46
2022/10/06 06:06:17;;;;;;;10.60;2.87;;;;;;;;;;5072940;28;20194;-47
2022/10/06 06:08:43;;;;;;;9.63;2.30;;;;;;;;;;5072691;28;20693;-47
2022/10/06 06:11:10;;;;;;;9.87;3.57;;;;;;;;;;5072811;28;20654;-47
2022/10/06 06:13:37;;;;;;;10.73;2.57;;;;;;;;;;5072879;28;20199;-47
2022/10/06 06:16:04;;;;;;;9.17;2.70;;;;;;;;;;5072589;28;20246;-46
2022/10/06 06:18:31;;;;;;;7.27;2.07;;;;;;;;;;5072816;28;20215;-47
2022/10/06 06:20:57;;;;;;;8.97;3.00;;;;;;;;;;5072565;28;20275;-47
2022/10/06 06:23:24;;;;;;;9.37;2.93;;;;;;;;;;5072639;28;20202;-47
2022/10/06 06:25:56;;;;;;;9.47;2.13;;;;;;;;;;5072579;28;20196;-47
2022/10/06 06:28:22;;;;;;;9.20;2.57;;;;;;;;;;5072445;28;20445;-47
2022/10/06 06:30:49;;;;;;;11.53;2.80;;;;;;;;;;5072411;28;20604;-46
2022/10/06 06:33:15;;;;;;;10.43;2.87;;;;;;;;;;5072421;28;20203;-46
2022/10/06 06:35:42;;;;;;;6.87;2.60;;;;;;;;;;5072409;28;20246;-46
2022/10/06 06:38:11;;;;;;;6.77;2.43;;;;;;;;;;5072224;28;20215;-47
2022/10/06 06:40:39;;;;;;;9.40;2.27;;;;;;;;;;5072393;28;20291;-47
2022/10/06 06:43:05;;;;;;;11.07;2.60;;;;;;;;;;5072167;28;20207;-46
2022/10/06 06:45:32;;;;;;;5.27;1.93;;;;;;;;;;5072290;28;20231;-47
2022/10/06 06:48:01;;;;;;;7.50;2.30;;;;;;;;;;5072035;28;20265;-47
2022/10/06 06:50:27;;;;;;;7.53;2.00;;;;;;;;;;5072113;28;20618;-47
2022/10/06 06:52:53;;;;;;;5.50;2.33;;;;;;;;;;5071987;28;20219;-47
2022/10/06 06:55:20;;;;;;;8.20;2.63;;;;;;;;;;5072251;28;20362;-47
2022/10/06 06:57:48;;;;;;;5.07;2.10;;;;;;;;;;5072080;28;20261;-47
2022/10/06 07:00:15;;;;;;;7.70;1.97;;;;;;;;;;5072144;28;20207;-46
2022/10/06 07:02:41;;;;;;;8.03;2.10;;;;;;;;;;5071811;28;20300;-46
2022/10/06 07:05:10;;;;;;;8.27;2.83;;;;;;;;;;5071919;28;20222;-47
2022/10/06 07:07:36;;;;;;;7.20;1.97;;;;;;;;;;5071692;28;20781;-47
2022/10/06 07:10:02;;;;;;;9.53;2.13;;;;;;;;;;5071814;28;20677;-47
2022/10/06 07:12:28;;;;;;;6.67;1.90;;;;;;;;;;5071879;28;20573;-46
2022/10/06 07:26:00;;;;;;;10.27;2.60;;;;;;;;;;5071785;28;20264;-47
2022/10/06 07:28:29;;;;;;;9.43;2.90;;;;;;;;;;5071240;28;20226;-46
2022/10/06 07:30:55;;;;;;;5.73;2.03;;;;;;;;;;5071619;28;20206;-46
2022/10/06 07:33:21;;;;;;;11.57;2.83;;;;;;;;;;5071555;28;20711;-45
2022/10/06 07:35:48;;;;;;;9.87;2.73;;;;;;;;;;5071545;28;20210;-47
2022/10/06 07:38:14;;;;;;;7.80;2.30;;;;;;;;;;5071482;28;20734;-47
2022/10/06 07:40:40;;;;;;;6.30;2.00;;;;;;;;;;5071707;28;20211;-45
2022/10/06 07:43:06;;;;;;;12.00;2.27;;;;;;;;;;5071536;28;20190;-46
2022/10/06 07:45:43;;;;;;;9.33;2.20;;;;;;;;;;5071509;28;20427;-47
2022/10/06 07:48:13;;;;;;;7.00;2.20;;;;;;;;;;5071354;28;20238;-47
2022/10/06 07:50:39;;;;;;;7.83;2.50;;;;;;;;;;5071588;28;20210;-47
2022/10/06 07:53:10;;;;;;;11.60;2.83;;;;;;;;;;5071295;28;20668;-47
2022/10/06 07:55:38;;;;;;;9.30;2.33;;;;;;;;;;5071555;28;20199;-47
2022/10/06 07:58:05;;;;;;;8.53;2.03;;;;;;;;;;5071341;28;20196;-46
2022/10/06 08:00:31;;;;;;;13.10;2.20;;;;;;;;;;5071512;28;20203;-46
2022/10/06 08:02:57;;;;;;;8.23;2.33;;;;;;;;;;5071147;28;20229;-46
2022/10/06 08:05:23;;;;;;;10.57;2.53;;;;;;;;;;5071379;28;20242;-46
2022/10/06 08:07:51;;;;;;;8.37;2.10;;;;;;;;;;5071034;28;20693;-46
2022/10/06 08:10:19;;;;;;;9.07;2.20;;;;;;;;;;5071395;28;20288;-46
2022/10/06 08:12:45;;;;;;;6.43;2.43;;;;;;;;;;5071345;28;20244;-46
2022/10/06 08:15:13;;;;;;;6.27;2.13;;;;;;;;;;5071152;28;20204;-46
2022/10/06 08:17:39;;;;;;;10.10;2.37;;;;;;;;;;5071305;28;20196;-46
2022/10/06 08:20:06;;;;;;;7.67;2.23;;;;;;;;;;5071147;28;20261;-47
2022/10/06 08:22:32;;;;;;;7.97;2.20;;;;;;;;;;5071131;28;20301;-46
2022/10/06 08:24:58;;;;;;;7.33;2.27;;;;;;;;;;5071083;28;20198;-46
2022/10/06 08:27:27;;;;;;;8.97;2.50;;;;;;;;;;5071267;28;20210;-47
2022/10/06 08:29:53;;;;;;;8.53;2.50;;;;;;;;;;5071262;28;20206;-46
2022/10/06 08:32:19;;;;;;;6.33;2.50;;;;;;;;;;5071149;28;20283;-46
2022/10/06 08:34:46;;;;;;;7.77;2.27;;;;;;;;;;5071087;28;20222;-46
2022/10/06 08:37:12;;;;;;;9.83;2.47;;;;;;;;;;5070944;28;20208;-46
2022/10/06 08:39:40;;;;;;;6.27;2.20;;;;;;;;;;5071355;28;20192;-46
2022/10/06 08:42:09;;;;;;;7.43;1.90;;;;;;;;;;5074467;28;20195;-46
2022/10/06 08:44:39;;;;;;;8.20;2.43;;;;;;;;;;5074443;28;20202;-46
2022/10/06 08:47:12;;;;;;;7.87;2.30;;;;;;;;;;5074391;28;20204;-46
2022/10/06 08:49:39;;;;;;;7.43;2.10;;;;;;;;;;5074482;28;20224;-47
2022/10/06 08:52:09;;;;;;;7.77;2.20;;;;;;;;;;5073064;28;20200;-47
2022/10/06 08:54:37;;;;;;;8.40;2.23;;;;;;;;;;5074441;28;20207;-47
2022/10/06 08:57:10;;;;;;;6.00;2.17;;;;;;;;;;5074254;28;20249;-47
2022/10/06 08:59:37;;;;;;;9.10;2.00;;;;;;;;;;5074398;28;20298;-47
2022/10/06 09:02:14;;;;;;;6.07;2.03;;;;;;;;;;5074038;28;20270;-47
2022/10/06 09:04:41;;;;;;;5.50;2.00;;;;;;;;;;5074207;28;20195;-47
2022/10/06 09:07:12;;;;;;;9.17;2.03;;;;;;;;;;5073968;28;20274;-47
2022/10/06 09:09:56;;;;;;;8.03;2.10;;;;;;;;;;5074090;28;20320;-47
2022/10/06 09:12:26;;;;;;;6.17;2.30;;;;;;;;;;5074044;28;20233;-47
2022/10/06 09:14:56;;;;;;;6.23;1.80;;;;;;;;;;5074099;28;20217;-47
2022/10/06 09:17:25;;;;;;;4.53;2.03;;;;;;;;;;5073949;28;20206;-47
2022/10/06 09:19:53;;;;;;;5.47;2.27;;;;;;;;;;5073801;28;20206;-48
2022/10/06 09:22:20;;;;;;;8.50;2.40;;;;;;;;;;5073678;28;20202;-47
2022/10/06 09:24:49;;;;;;;5.40;2.10;;;;;;;;;;5073754;28;20630;-48
2022/10/06 09:27:20;;;;;;;6.63;1.90;;;;;;;;;;5073656;28;20199;-48
2022/10/06 09:29:47;;;;;;;7.20;2.13;;;;;;;;;;5073591;28;20223;-48
2022/10/06 09:32:14;;;;;;;4.13;1.80;;;;;;;;;;5073409;28;20562;-47
2022/10/06 09:34:44;;;;;;;6.40;2.10;;;;;;;;;;5073565;28;20661;-47
2022/10/06 09:37:12;;;;;;;4.13;2.00;;;;;;;;;;5073239;28;20310;-48
2022/10/06 09:39:39;;;;;;;9.17;1.97;;;;;;;;;;5073564;28;20194;-47
2022/10/06 09:42:10;;;;;;;6.00;1.83;;;;;;;;;;5073487;28;20195;-48
2022/10/06 09:44:41;;;;;;;7.73;2.20;;;;;;;;;;5073490;28;20203;-48
2022/10/06 09:50:11;;;;;;;5.30;1.87;;;;;;;;;;5089344;27;20909;-48
2022/10/06 09:52:37;;;;;;;7.87;1.90;;;;;;;;;;5089369;28;20548;-48
2022/10/06 09:55:06;;;;;;;6.37;1.97;;;;;;;;;;5089361;28;20195;-48
2022/10/06 09:57:32;;;;;;;6.00;1.90;;;;;;;;;;5089375;28;20248;-48
2022/10/06 09:59:58;;;;;;;6.17;1.87;;;;;;;;;;5088998;28;20583;-48
2022/10/06 10:02:29;;;;;;;5.37;2.00;;;;;;;;;;5089258;28;20214;-46
2022/10/06 10:04:56;;;;;;;6.03;1.87;;;;;;;;;;5088832;28;20645;-46
2022/10/06 10:07:25;;;;;;;6.30;2.03;;;;;;;;;;5088921;28;20227;-46
2022/10/06 10:09:51;;;;;;;7.40;2.60;;;;;;;;;;5088946;28;20655;-46
2022/10/06 10:12:26;;;;;;;6.10;2.00;;;;;;;;;;5089117;28;20198;-47
2022/10/06 10:14:52;;;;;;;5.90;2.03;;;;;;;;;;5089209;28;20271;-47
2022/10/06 10:17:19;;;;;;;6.67;2.37;;;;;;;;;;5088803;28;20252;-47
2022/10/06 10:19:51;;;;;;;5.23;1.73;;;;;;;;;;5088852;28;20285;-47
2022/10/06 10:22:21;;;;;;;10.87;2.00;;;;;;;;;;5088695;28;20561;-47
2022/10/06 10:24:53;;;;;;;3.83;1.57;;;;;;;;;;5088854;28;20210;-47
2022/10/06 10:27:22;;;;;;;5.20;1.60;;;;;;;;;;5088663;28;20211;-47
2022/10/06 10:30:00;;;;;;;6.43;2.10;;;;;;;;;;5088538;28;20305;-47
2022/10/06 10:32:34;;;;;;;5.23;2.10;;;;;;;;;;5088471;28;20588;-47
2022/10/06 10:35:04;;;;;;;5.77;2.57;;;;;;;;;;5088556;28;20190;-47
2022/10/06 10:37:36;;;;;;;7.17;2.13;;;;;;;;;;5088423;28;20285;-47
2022/10/06 10:40:06;;;;;;;7.93;1.80;;;;;;;;;;5088325;28;20207;-48
2022/10/06 10:42:36;;;;;;;3.90;1.70;;;;;;;;;;5088356;28;20208;-47
2022/10/06 10:45:04;;;;;;;4.40;1.93;;;;;;;;;;5088198;28;20202;-46
2022/10/06 10:47:33;;;;;;;5.60;1.87;;;;;;;;;;5088200;28;20723;-47
2022/10/06 10:50:02;;;;;;;4.13;1.73;;;;;;;;;;5087887;28;20231;-47
2022/10/06 10:52:31;;;;;;;3.87;1.80;;;;;;;;;;5088164;28;20203;-47
2022/10/06 10:55:03;;;;;;;5.03;2.07;;;;;;;;;;5088076;28;20244;-47
2022/10/06 10:57:34;;;;;;;3.50;1.70;;;;;;;;;;5088182;28;20198;-48
2022/10/06 11:00:02;;;;;;;5.13;1.77;;;;;;;;;;5082098;28;20245;-48
2022/10/06 11:02:29;;;;;;;5.93;1.80;;;;;;;;;;5074454;28;20287;-48
2022/10/06 11:04:57;;;;;;;5.17;1.83;;;;;;;;;;5074295;28;20201;-48
2022/10/06 11:07:26;;;;;;;5.77;1.83;;;;;;;;;;5074324;28;20215;-48
2022/10/06 11:09:55;;;;;;;5.13;1.60;;;;;;;;;;5074260;28;20225;-49
2022/10/06 11:12:28;;;;;;;6.87;2.13;;;;;;;;;;5074221;28;20210;-49
2022/10/06 11:14:58;;;;;;;5.87;2.03;;;;;;;;;;5074089;28;20199;-48
2022/10/06 11:17:38;;;;;;;3.37;1.50;;;;;;;;;;5074155;28;20196;-47
2022/10/06 11:20:11;;;;;;;3.60;1.97;;;;;;;;;;5074114;28;20604;-48
2022/10/06 11:22:43;;;;;;;4.90;1.70;;;;;;;;;;5074120;28;20658;-49
2022/10/06 11:25:19;;;;;;;11.93;2.00;;;;;;;;;;5074083;28;20727;-48
2022/10/06 11:27:51;;;;;;;7.53;1.87;;;;;;;;;;5074006;28;20207;-49
2022/10/06 11:30:19;;;;;;;6.57;1.80;;;;;;;;;;5073916;28;20682;-49
2022/10/06 11:32:50;;;;;;;4.40;1.77;;;;;;;;;;5073927;28;20204;-49
2022/10/06 11:35:18;;;;;;;6.77;1.80;;;;;;;;;;5073631;28;20651;-49
2022/10/06 11:37:48;;;;;;;3.87;1.83;;;;;;;;;;5073753;28;20220;-49
2022/10/06 11:40:32;;;;;;;6.03;1.83;;;;;;;;;;5073816;28;20199;-50
2022/10/06 11:43:01;;;;;;;4.00;1.70;;;;;;;;;;5073697;28;20674;-49
2022/10/06 11:45:31;;;;;;;3.57;1.63;;;;;;;;;;5073820;28;20250;-49
2022/10/06 11:48:11;;;;;;;6.07;2.20;;;;;;;;;;5073465;28;20231;-48
2022/10/06 11:50:40;;;;;;;5.43;1.83;;;;;;;;;;5073692;28;20200;-49
2022/10/06 11:53:22;;;;;;;3.83;1.60;;;;;;;;;;5073495;28;20202;-49
2022/10/06 11:56:08;;;;;;;4.97;1.77;;;;;;;;;;5073477;28;20214;-50
2022/10/06 11:58:49;;;;;;;6.93;1.60;;;;;;;;;;5073335;28;20538;-50
2022/10/06 12:01:30;;;;;;;3.57;1.73;;;;;;;;;;5073295;28;20196;-49
2022/10/06 12:04:12;;;;;;;5.30;1.77;;;;;;;;;;5073463;28;20267;-49
2022/10/06 12:06:55;;;;;;;6.90;2.23;;;;;;;;;;5073314;28;20598;-49
2022/10/06 12:09:31;;;;;;;5.00;1.60;;;;;;;;;;5072979;28;20223;-49
2022/10/06 12:11:58;;;;;;;6.43;1.70;;;;;;;;;;5072237;28;20206;-50
2022/10/06 12:14:26;;;;;;;6.47;1.83;;;;;;;;;;5073113;28;20611;-49
2022/10/06 12:16:54;;;;;;;5.03;1.70;;;;;;;;;;5073104;28;20660;-49
2022/10/06 12:19:24;;;;;;;4.50;1.80;;;;;;;;;;5073053;28;20204;-49
2022/10/06 12:21:54;;;;;;;5.20;2.13;;;;;;;;;;5073070;28;20211;-50
2022/10/06 12:24:27;;;;;;;6.97;1.90;;;;;;;;;;5072901;28;20208;-49
2022/10/06 12:26:58;;;;;;;4.40;1.93;;;;;;;;;;5072987;28;20197;-49
2022/10/06 12:29:38;;;;;;;5.90;2.00;;;;;;;;;;5072903;28;20252;-49
2022/10/06 12:32:11;;;;;;;5.30;2.17;;;;;;;;;;5072740;28;20204;-49
2022/10/06 12:34:43;;;;;;;5.23;1.60;;;;;;;;;;5072926;28;20212;-52
2022/10/06 12:37:19;;;;;;;4.80;1.50;;;;;;;;;;5072631;28;20203;-48
2022/10/06 12:39:45;;;;;;;5.13;1.93;;;;;;;;;;5072837;28;20197;-49
2022/10/06 12:42:17;;;;;;;5.33;1.80;;;;;;;;;;5072604;28;20219;-49
2022/10/06 12:44:48;;;;;;;3.17;1.40;;;;;;;;;;5072743;28;20223;-49
2022/10/06 12:47:15;;;;;;;5.37;1.80;;;;;;;;;;5072517;28;20287;-49
2022/10/06 12:49:45;;;;;;;4.93;1.73;;;;;;;;;;5072144;28;20239;-49
2022/10/06 12:52:20;;;;;;;7.50;2.10;;;;;;;;;;5072217;28;20735;-49
2022/10/06 12:54:54;;;;;;;7.33;2.00;;;;;;;;;;5072315;28;20294;-49
2022/10/06 12:57:22;;;;;;;5.53;1.97;;;;;;;;;;5072174;28;20254;-49
2022/10/06 12:59:48;;;;;;;5.60;1.67;;;;;;;;;;5072157;28;20191;-50
2022/10/06 13:02:17;;;;;;;6.83;2.37;;;;;;;;;;5071970;28;20203;-49
2022/10/06 13:04:48;;;;;;;5.40;2.17;;;;;;;;;;5072215;28;20219;-50
2022/10/06 13:07:16;;;;;;;6.83;1.97;;;;;;;;;;5072031;28;20236;-49
2022/10/06 13:09:42;;;;;;;4.93;1.57;;;;;;;;;;5072015;28;20686;-49
2022/10/06 13:12:25;;;;;;;5.00;1.60;;;;;;;;;;5071942;28;20215;-49
2022/10/06 13:15:14;;;;;;;4.93;2.03;;;;;;;;;;5071982;28;20191;-49
2022/10/06 13:17:41;;;;;;;5.37;1.93;;;;;;;;;;5071949;28;20247;-49
2022/10/06 13:20:17;;;;;;;6.77;1.93;;;;;;;;;;5071865;28;20195;-49
2022/10/06 13:22:43;;;;;;;7.13;1.93;;;;;;;;;;5071674;28;20614;-49
2022/10/06 13:25:12;;;;;;;6.17;1.73;;;;;;;;;;5071734;28;20212;-49
2022/10/06 13:27:39;;;;;;;7.67;1.90;;;;;;;;;;5071875;28;20202;-49
2022/10/06 13:30:17;;;;;;;5.50;1.80;;;;;;;;;;5071712;28;20234;-48
2022/10/06 13:32:43;;;;;;;9.67;2.23;;;;;;;;;;5072046;28;20210;-49
2022/10/06 13:35:11;;;;;;;3.73;1.60;;;;;;;;;;5071695;28;20571;-49
2022/10/06 13:37:38;;;;;;;5.50;1.73;;;;;;;;;;5071789;28;20195;-48
2022/10/06 13:40:13;;;;;;;3.50;1.90;;;;;;;;;;5071671;28;20286;-49
2022/10/06 13:42:39;;;;;;;7.67;2.10;;;;;;;;;;5071794;28;20191;-49
2022/10/06 13:45:13;;;;;;;5.27;1.90;;;;;;;;;;5071888;28;20231;-49
2022/10/06 13:47:39;;;;;;;4.83;1.50;;;;;;;;;;5071653;28;20264;-49
2022/10/06 13:50:07;;;;;;;3.90;1.90;;;;;;;;;;5071410;28;20597;-49
2022/10/06 13:52:34;;;;;;;5.63;1.57;;;;;;;;;;5071750;28;20202;-48
2022/10/06 13:55:02;;;;;;;3.77;2.10;;;;;;;;;;5071427;28;20207;-49
2022/10/06 13:57:38;;;;;;;6.67;1.60;;;;;;;;;;5071684;28;20203;-50
2022/10/06 14:00:06;;;;;;;8.07;2.10;;;;;;;;;;5071518;28;20225;-49
2022/10/06 14:02:33;;;;;;;5.90;2.37;;;;;;;;;;5071649;28;20199;-49
2022/10/06 14:05:18;;;;;;;4.20;1.40;;;;;;;;;;5071488;28;20598;-48
2022/10/06 14:07:44;;;;;;;3.90;1.53;;;;;;;;;;5071457;28;20214;-49
2022/10/06 14:10:15;;;;;;;5.27;1.73;;;;;;;;;;5071300;28;20231;-49
2022/10/06 14:12:42;;;;;;;6.07;1.60;;;;;;;;;;5071406;28;20678;-49
2022/10/06 14:15:16;;;;;;;4.87;1.80;;;;;;;;;;5071388;28;20208;-49
2022/10/06 14:17:42;;;;;;;5.77;1.60;;;;;;;;;;5071389;28;20739;-49
2022/10/06 14:20:23;;;;;;;4.37;1.70;;;;;;;;;;5071179;28;20646;-48
2022/10/06 14:22:49;;;;;;;6.97;1.90;;;;;;;;;;5071084;28;20503;-48
2022/10/06 14:25:16;;;;;;;6.20;2.10;;;;;;;;;;5071199;28;20684;-48
2022/10/06 14:27:42;;;;;;;6.30;1.93;;;;;;;;;;5071333;28;20270;-48
2022/10/06 14:30:10;;;;;;;5.83;1.80;;;;;;;;;;5071104;28;20318;-48
2022/10/06 14:32:37;;;;;;;3.90;1.60;;;;;;;;;;5071242;28;20195;-48
2022/10/06 14:35:03;;;;;;;5.27;1.70;;;;;;;;;;5072025;28;20198;-48
2022/10/06 14:37:29;;;;;;;8.50;2.10;;;;;;;;;;5074837;28;20659;-48
2022/10/06 14:39:55;;;;;;;5.47;1.87;;;;;;;;;;5074810;28;20202;-48
2022/10/06 14:42:23;;;;;;;3.97;1.70;;;;;;;;;;5074773;28;20197;-48
2022/10/06 14:44:49;;;;;;;6.87;1.70;;;;;;;;;;5074849;28;20281;-48
2022/10/06 14:47:15;;;;;;;4.87;1.63;;;;;;;;;;5074732;28;20208;-49
2022/10/06 14:49:43;;;;;;;6.10;2.07;;;;;;;;;;5074493;28;20230;-49
2022/10/06 14:52:10;;;;;;;4.53;2.33;;;;;;;;;;5074557;28;20255;-49
2022/10/06 14:54:36;;;;;;;4.03;1.87;;;;;;;;;;5074801;28;20284;-48
2022/10/06 14:57:03;;;;;;;6.67;1.90;;;;;;;;;;5074612;28;20609;-49
2022/10/06 14:59:31;;;;;;;6.87;1.80;;;;;;;;;;5074507;28;20192;-48
2022/10/06 15:01:57;;;;;;;5.60;1.70;;;;;;;;;;5074464;28;20318;-48
2022/10/06 15:04:24;;;;;;;6.03;1.77;;;;;;;;;;5074415;28;20349;-50
2022/10/06 15:09:35;;;;;;;6.27;1.73;;;;;;;;;;5074396;28;20294;-49